Gildford, Montana
Current Conditions -  °F | °C
As of 8:53 AM on Thursday 23 Oct 2014 (Local Time) from KHVR Reporting Station
Clear Clear  
Wind Chill: 56°   Ceiling: Unl
Heat Index: 56°   Visibility: 10mi
Dew Point: 35°   Wind: 18mph
Humidity: 45%   Direction: 220°SW
Pressure: 29.75"   Gusts: NA
Location:  48.56°N, 110.3°W
Report Text: KHVR 231453Z AUTO 22016KT 10SM CLR 13/02 A2975 RMK AO2 SLP071 T01330017 53006
Loading
Personal Weather Stations






























Interactive Weather Map
Tropical Storm Tracking
New forecast layout! Learn more

10-Day Weather Forecast

Advertisements
Track Severe Weather on mobile